sensor_id;sensor_type;location;lat;lon;timestamp;P1;durP1;ratioP1;P2;durP2;ratioP2
3881;SDS011;1956;53.482;10.238;2023-07-29T00:00:20;5.53;;;3.67;;
3881;SDS011;1956;53.482;10.238;2023-07-29T00:05:20;4.20;;;3.80;;
3881;SDS011;1956;53.482;10.238;2023-07-29T00:10:21;4.97;;;4.43;;
3881;SDS011;1956;53.482;10.238;2023-07-29T00:15:21;7.70;;;4.47;;
3881;SDS011;1956;53.482;10.238;2023-07-29T00:20:21;4.27;;;3.87;;
3881;SDS011;1956;53.482;10.238;2023-07-29T00:25:22;3.90;;;3.60;;
3881;SDS011;1956;53.482;10.238;2023-07-29T00:30:22;4.50;;;4.20;;
3881;SDS011;1956;53.482;10.238;2023-07-29T00:35:22;5.40;;;4.90;;
3881;SDS011;1956;53.482;10.238;2023-07-29T00:40:22;8.67;;;5.37;;
3881;SDS011;1956;53.482;10.238;2023-07-29T00:45:23;8.73;;;5.30;;
3881;SDS011;1956;53.482;10.238;2023-07-29T00:50:24;6.60;;;5.60;;
3881;SDS011;1956;53.482;10.238;2023-07-29T00:55:27;6.60;;;6.00;;
3881;SDS011;1956;53.482;10.238;2023-07-29T01:00:28;6.47;;;5.87;;
3881;SDS011;1956;53.482;10.238;2023-07-29T01:05:32;6.13;;;5.60;;
3881;SDS011;1956;53.482;10.238;2023-07-29T01:10:52;7.33;;;6.00;;
3881;SDS011;1956;53.482;10.238;2023-07-29T01:16:31;6.40;;;5.80;;
3881;SDS011;1956;53.482;10.238;2023-07-29T01:21:23;8.37;;;7.40;;
3881;SDS011;1956;53.482;10.238;2023-07-29T01:26:26;11.60;;;6.73;;
3881;SDS011;1956;53.482;10.238;2023-07-29T01:31:34;7.03;;;6.33;;
3881;SDS011;1956;53.482;10.238;2023-07-29T01:36:38;8.57;;;7.60;;
3881;SDS011;1956;53.482;10.238;2023-07-29T01:41:41;8.40;;;7.00;;
3881;SDS011;1956;53.482;10.238;2023-07-29T01:46:41;11.17;;;8.53;;
3881;SDS011;1956;53.482;10.238;2023-07-29T01:51:43;9.37;;;8.10;;
3881;SDS011;1956;53.482;10.238;2023-07-29T01:56:44;8.43;;;7.63;;
3881;SDS011;1956;53.482;10.238;2023-07-29T02:01:44;9.13;;;7.90;;
3881;SDS011;1956;53.482;10.238;2023-07-29T02:06:46;11.17;;;8.80;;
3881;SDS011;1956;53.482;10.238;2023-07-29T02:11:46;8.57;;;7.77;;
3881;SDS011;1956;53.482;10.238;2023-07-29T02:16:46;9.93;;;8.87;;
3881;SDS011;1956;53.482;10.238;2023-07-29T02:21:47;11.93;;;8.10;;
3881;SDS011;1956;53.482;10.238;2023-07-29T02:26:47;12.07;;;9.17;;
3881;SDS011;1956;53.482;10.238;2023-07-29T02:31:47;10.00;;;8.83;;
3881;SDS011;1956;53.482;10.238;2023-07-29T02:36:48;10.13;;;8.83;;
3881;SDS011;1956;53.482;10.238;2023-07-29T02:41:48;11.50;;;9.07;;
3881;SDS011;1956;53.482;10.238;2023-07-29T02:46:49;10.57;;;9.47;;
3881;SDS011;1956;53.482;10.238;2023-07-29T02:51:49;10.17;;;9.17;;
3881;SDS011;1956;53.482;10.238;2023-07-29T02:56:49;12.47;;;9.27;;
3881;SDS011;1956;53.482;10.238;2023-07-29T03:01:50;9.73;;;8.47;;
3881;SDS011;1956;53.482;10.238;2023-07-29T03:06:50;10.17;;;9.27;;
3881;SDS011;1956;53.482;10.238;2023-07-29T03:11:50;10.37;;;9.27;;
3881;SDS011;1956;53.482;10.238;2023-07-29T03:16:52;13.73;;;9.77;;
3881;SDS011;1956;53.482;10.238;2023-07-29T03:21:53;15.30;;;9.37;;
3881;SDS011;1956;53.482;10.238;2023-07-29T03:26:53;10.43;;;9.33;;
3881;SDS011;1956;53.482;10.238;2023-07-29T03:31:54;10.23;;;8.97;;
3881;SDS011;1956;53.482;10.238;2023-07-29T03:36:55;12.67;;;11.30;;
3881;SDS011;1956;53.482;10.238;2023-07-29T03:41:55;12.10;;;10.40;;
3881;SDS011;1956;53.482;10.238;2023-07-29T03:46:55;10.67;;;9.67;;
3881;SDS011;1956;53.482;10.238;2023-07-29T03:51:55;12.30;;;9.97;;
3881;SDS011;1956;53.482;10.238;2023-07-29T03:56:56;13.40;;;11.73;;
3881;SDS011;1956;53.482;10.238;2023-07-29T04:01:56;13.40;;;12.00;;
3881;SDS011;1956;53.482;10.238;2023-07-29T04:06:56;25.97;;;15.20;;
3881;SDS011;1956;53.482;10.238;2023-07-29T04:11:57;16.13;;;12.23;;
3881;SDS011;1956;53.482;10.238;2023-07-29T04:16:57;13.20;;;11.73;;
3881;SDS011;1956;53.482;10.238;2023-07-29T04:21:57;22.23;;;13.50;;
3881;SDS011;1956;53.482;10.238;2023-07-29T04:26:58;18.67;;;13.83;;
3881;SDS011;1956;53.482;10.238;2023-07-29T04:31:58;17.03;;;13.20;;
3881;SDS011;1956;53.482;10.238;2023-07-29T04:36:58;16.08;;;12.82;;
3881;SDS011;1956;53.482;10.238;2023-07-29T04:41:58;14.17;;;12.40;;
3881;SDS011;1956;53.482;10.238;2023-07-29T04:46:59;14.02;;;12.25;;
3881;SDS011;1956;53.482;10.238;2023-07-29T04:51:59;18.63;;;15.37;;
3881;SDS011;1956;53.482;10.238;2023-07-29T04:56:59;17.30;;;14.70;;
3881;SDS011;1956;53.482;10.238;2023-07-29T05:01:59;20.87;;;16.40;;
3881;SDS011;1956;53.482;10.238;2023-07-29T05:07:00;19.97;;;16.20;;
3881;SDS011;1956;53.482;10.238;2023-07-29T05:12:00;24.60;;;18.63;;
3881;SDS011;1956;53.482;10.238;2023-07-29T05:17:00;27.30;;;19.48;;
3881;SDS011;1956;53.482;10.238;2023-07-29T05:22:01;27.90;;;21.57;;
3881;SDS011;1956;53.482;10.238;2023-07-29T05:27:01;36.72;;;25.75;;
3881;SDS011;1956;53.482;10.238;2023-07-29T05:32:01;43.27;;;23.40;;
3881;SDS011;1956;53.482;10.238;2023-07-29T05:37:01;42.93;;;28.53;;
3881;SDS011;1956;53.482;10.238;2023-07-29T05:42:02;44.30;;;28.67;;
3881;SDS011;1956;53.482;10.238;2023-07-29T05:47:02;43.90;;;32.77;;
3881;SDS011;1956;53.482;10.238;2023-07-29T05:52:03;44.70;;;29.57;;
3881;SDS011;1956;53.482;10.238;2023-07-29T05:57:03;35.43;;;27.10;;
3881;SDS011;1956;53.482;10.238;2023-07-29T06:02:04;37.83;;;26.37;;
3881;SDS011;1956;53.482;10.238;2023-07-29T06:07:04;29.60;;;23.60;;
3881;SDS011;1956;53.482;10.238;2023-07-29T06:12:05;30.40;;;24.77;;
3881;SDS011;1956;53.482;10.238;2023-07-29T06:17:05;26.53;;;22.87;;
3881;SDS011;1956;53.482;10.238;2023-07-29T06:22:07;29.43;;;23.70;;
3881;SDS011;1956;53.482;10.238;2023-07-29T06:27:07;29.73;;;22.67;;
3881;SDS011;1956;53.482;10.238;2023-07-29T06:32:07;25.90;;;21.73;;
3881;SDS011;1956;53.482;10.238;2023-07-29T06:37:07;27.60;;;22.90;;
3881;SDS011;1956;53.482;10.238;2023-07-29T06:42:08;28.63;;;21.43;;
3881;SDS011;1956;53.482;10.238;2023-07-29T06:47:08;23.80;;;19.50;;
3881;SDS011;1956;53.482;10.238;2023-07-29T06:52:08;23.40;;;19.53;;
3881;SDS011;1956;53.482;10.238;2023-07-29T06:57:08;22.03;;;19.10;;
3881;SDS011;1956;53.482;10.238;2023-07-29T07:02:09;22.33;;;18.87;;
3881;SDS011;1956;53.482;10.238;2023-07-29T07:07:09;20.10;;;15.83;;
3881;SDS011;1956;53.482;10.238;2023-07-29T07:12:09;18.30;;;15.73;;
3881;SDS011;1956;53.482;10.238;2023-07-29T07:17:09;18.70;;;16.00;;
3881;SDS011;1956;53.482;10.238;2023-07-29T07:22:09;19.27;;;15.23;;
3881;SDS011;1956;53.482;10.238;2023-07-29T07:27:10;18.53;;;14.93;;
3881;SDS011;1956;53.482;10.238;2023-07-29T07:32:10;18.02;;;14.20;;
3881;SDS011;1956;53.482;10.238;2023-07-29T07:37:10;15.20;;;13.60;;
3881;SDS011;1956;53.482;10.238;2023-07-29T07:42:11;14.65;;;13.10;;
3881;SDS011;1956;53.482;10.238;2023-07-29T07:47:11;17.60;;;12.70;;
3881;SDS011;1956;53.482;10.238;2023-07-29T07:52:11;20.23;;;11.47;;
3881;SDS011;1956;53.482;10.238;2023-07-29T07:57:11;12.00;;;10.67;;
3881;SDS011;1956;53.482;10.238;2023-07-29T08:02:11;11.47;;;10.10;;
3881;SDS011;1956;53.482;10.238;2023-07-29T08:07:12;10.77;;;9.67;;
3881;SDS011;1956;53.482;10.238;2023-07-29T08:12:13;11.50;;;10.40;;
3881;SDS011;1956;53.482;10.238;2023-07-29T08:17:13;13.63;;;11.30;;
3881;SDS011;1956;53.482;10.238;2023-07-29T08:22:14;11.30;;;10.13;;
3881;SDS011;1956;53.482;10.238;2023-07-29T08:27:14;12.40;;;10.10;;
3881;SDS011;1956;53.482;10.238;2023-07-29T08:32:14;10.93;;;8.53;;
3881;SDS011;1956;53.482;10.238;2023-07-29T08:37:14;10.60;;;8.23;;
3881;SDS011;1956;53.482;10.238;2023-07-29T08:42:15;9.07;;;8.27;;
3881;SDS011;1956;53.482;10.238;2023-07-29T08:47:18;7.80;;;7.10;;
3881;SDS011;1956;53.482;10.238;2023-07-29T08:52:19;7.53;;;6.90;;
3881;SDS011;1956;53.482;10.238;2023-07-29T08:57:20;11.47;;;7.67;;
3881;SDS011;1956;53.482;10.238;2023-07-29T09:02:20;7.80;;;7.10;;
3881;SDS011;1956;53.482;10.238;2023-07-29T09:07:20;7.73;;;7.03;;
3881;SDS011;1956;53.482;10.238;2023-07-29T09:12:21;8.90;;;8.10;;
3881;SDS011;1956;53.482;10.238;2023-07-29T09:17:21;10.30;;;9.30;;
3881;SDS011;1956;53.482;10.238;2023-07-29T09:22:22;10.23;;;7.13;;
3881;SDS011;1956;53.482;10.238;2023-07-29T09:27:25;7.57;;;6.93;;
3881;SDS011;1956;53.482;10.238;2023-07-29T09:32:26;7.10;;;6.50;;
3881;SDS011;1956;53.482;10.238;2023-07-29T09:37:27;8.80;;;7.90;;
3881;SDS011;1956;53.482;10.238;2023-07-29T09:42:27;9.00;;;7.30;;
3881;SDS011;1956;53.482;10.238;2023-07-29T09:47:27;7.37;;;6.77;;
3881;SDS011;1956;53.482;10.238;2023-07-29T09:52:27;8.47;;;7.13;;
3881;SDS011;1956;53.482;10.238;2023-07-29T09:57:28;8.60;;;7.73;;
3881;SDS011;1956;53.482;10.238;2023-07-29T10:02:29;10.00;;;7.20;;
3881;SDS011;1956;53.482;10.238;2023-07-29T10:07:30;8.20;;;7.50;;
3881;SDS011;1956;53.482;10.238;2023-07-29T10:12:31;7.90;;;7.20;;
3881;SDS011;1956;53.482;10.238;2023-07-29T10:17:33;6.97;;;6.43;;
3881;SDS011;1956;53.482;10.238;2023-07-29T10:22:41;7.90;;;7.10;;
3881;SDS011;1956;53.482;10.238;2023-07-29T10:27:48;7.13;;;6.50;;
3881;SDS011;1956;53.482;10.238;2023-07-29T10:32:48;6.80;;;6.17;;
3881;SDS011;1956;53.482;10.238;2023-07-29T10:37:49;6.30;;;5.70;;
3881;SDS011;1956;53.482;10.238;2023-07-29T10:43:06;6.83;;;6.13;;
3881;SDS011;1956;53.482;10.238;2023-07-29T10:48:11;6.83;;;6.13;;
3881;SDS011;1956;53.482;10.238;2023-07-29T10:53:12;6.20;;;5.60;;
3881;SDS011;1956;53.482;10.238;2023-07-29T10:58:13;5.63;;;5.13;;
3881;SDS011;1956;53.482;10.238;2023-07-29T11:03:13;4.63;;;4.33;;
3881;SDS011;1956;53.482;10.238;2023-07-29T11:08:32;5.17;;;4.77;;
3881;SDS011;1956;53.482;10.238;2023-07-29T11:13:34;5.20;;;4.80;;
3881;SDS011;1956;53.482;10.238;2023-07-29T11:18:35;5.40;;;4.90;;
3881;SDS011;1956;53.482;10.238;2023-07-29T11:23:36;3.90;;;3.60;;
3881;SDS011;1956;53.482;10.238;2023-07-29T11:28:39;6.13;;;3.60;;
3881;SDS011;1956;53.482;10.238;2023-07-29T11:33:40;4.00;;;3.60;;
3881;SDS011;1956;53.482;10.238;2023-07-29T11:38:40;3.35;;;3.15;;
3881;SDS011;1956;53.482;10.238;2023-07-29T11:43:40;2.83;;;2.65;;
3881;SDS011;1956;53.482;10.238;2023-07-29T11:48:41;7.83;;;3.37;;
3881;SDS011;1956;53.482;10.238;2023-07-29T11:53:44;6.83;;;3.10;;
3881;SDS011;1956;53.482;10.238;2023-07-29T11:58:44;3.27;;;2.97;;
3881;SDS011;1956;53.482;10.238;2023-07-29T12:03:45;3.67;;;3.00;;
3881;SDS011;1956;53.482;10.238;2023-07-29T12:08:45;3.53;;;3.33;;
3881;SDS011;1956;53.482;10.238;2023-07-29T12:13:46;3.17;;;2.87;;
3881;SDS011;1956;53.482;10.238;2023-07-29T12:18:47;3.20;;;2.80;;
3881;SDS011;1956;53.482;10.238;2023-07-29T12:23:49;4.27;;;3.50;;
3881;SDS011;1956;53.482;10.238;2023-07-29T12:28:49;3.63;;;3.13;;
3881;SDS011;1956;53.482;10.238;2023-07-29T12:33:55;4.77;;;4.23;;
3881;SDS011;1956;53.482;10.238;2023-07-29T12:38:58;4.23;;;3.40;;
3881;SDS011;1956;53.482;10.238;2023-07-29T12:43:59;3.10;;;2.90;;
3881;SDS011;1956;53.482;10.238;2023-07-29T12:48:59;3.20;;;2.90;;
3881;SDS011;1956;53.482;10.238;2023-07-29T12:53:59;3.20;;;2.93;;
3881;SDS011;1956;53.482;10.238;2023-07-29T12:59:00;2.30;;;2.20;;
3881;SDS011;1956;53.482;10.238;2023-07-29T13:04:00;2.10;;;1.93;;
3881;SDS011;1956;53.482;10.238;2023-07-29T13:09:01;2.23;;;2.13;;
3881;SDS011;1956;53.482;10.238;2023-07-29T13:14:01;2.27;;;2.17;;
3881;SDS011;1956;53.482;10.238;2023-07-29T13:19:01;2.30;;;2.20;;
3881;SDS011;1956;53.482;10.238;2023-07-29T13:24:02;2.67;;;2.07;;
3881;SDS011;1956;53.482;10.238;2023-07-29T13:29:02;3.63;;;2.13;;
3881;SDS011;1956;53.482;10.238;2023-07-29T13:34:04;2.57;;;2.20;;
3881;SDS011;1956;53.482;10.238;2023-07-29T13:39:04;2.13;;;1.93;;
3881;SDS011;1956;53.482;10.238;2023-07-29T13:44:04;2.10;;;2.00;;
3881;SDS011;1956;53.482;10.238;2023-07-29T13:49:04;5.90;;;2.17;;
3881;SDS011;1956;53.482;10.238;2023-07-29T13:54:05;4.77;;;2.30;;
3881;SDS011;1956;53.482;10.238;2023-07-29T13:59:05;2.53;;;2.00;;
3881;SDS011;1956;53.482;10.238;2023-07-29T14:04:05;2.63;;;2.17;;
3881;SDS011;1956;53.482;10.238;2023-07-29T14:09:05;3.03;;;1.93;;
3881;SDS011;1956;53.482;10.238;2023-07-29T14:14:06;2.70;;;2.50;;
3881;SDS011;1956;53.482;10.238;2023-07-29T14:19:07;2.10;;;2.00;;
3881;SDS011;1956;53.482;10.238;2023-07-29T14:24:07;2.60;;;2.40;;
3881;SDS011;1956;53.482;10.238;2023-07-29T14:29:07;2.30;;;2.10;;
3881;SDS011;1956;53.482;10.238;2023-07-29T14:34:07;2.40;;;2.20;;
3881;SDS011;1956;53.482;10.238;2023-07-29T14:39:08;2.13;;;2.03;;
3881;SDS011;1956;53.482;10.238;2023-07-29T14:44:08;2.10;;;2.00;;
3881;SDS011;1956;53.482;10.238;2023-07-29T14:49:08;3.00;;;1.83;;
3881;SDS011;1956;53.482;10.238;2023-07-29T14:54:08;1.87;;;1.70;;
3881;SDS011;1956;53.482;10.238;2023-07-29T14:59:09;2.37;;;1.70;;
3881;SDS011;1956;53.482;10.238;2023-07-29T15:04:09;1.63;;;1.50;;
3881;SDS011;1956;53.482;10.238;2023-07-29T15:09:09;3.43;;;1.60;;
3881;SDS011;1956;53.482;10.238;2023-07-29T15:14:09;1.70;;;1.60;;
3881;SDS011;1956;53.482;10.238;2023-07-29T15:19:10;2.97;;;1.80;;
3881;SDS011;1956;53.482;10.238;2023-07-29T15:24:10;1.73;;;1.50;;
3881;SDS011;1956;53.482;10.238;2023-07-29T15:29:10;2.03;;;1.83;;
3881;SDS011;1956;53.482;10.238;2023-07-29T15:34:10;1.80;;;1.70;;
3881;SDS011;1956;53.482;10.238;2023-07-29T15:39:11;1.90;;;1.73;;
3881;SDS011;1956;53.482;10.238;2023-07-29T15:44:11;2.23;;;1.77;;
3881;SDS011;1956;53.482;10.238;2023-07-29T15:49:11;1.93;;;1.83;;
3881;SDS011;1956;53.482;10.238;2023-07-29T15:54:11;1.77;;;1.67;;
3881;SDS011;1956;53.482;10.238;2023-07-29T15:59:12;2.10;;;1.90;;
3881;SDS011;1956;53.482;10.238;2023-07-29T16:04:12;1.73;;;1.63;;
3881;SDS011;1956;53.482;10.238;2023-07-29T16:09:12;3.17;;;1.60;;
3881;SDS011;1956;53.482;10.238;2023-07-29T16:14:12;2.03;;;1.70;;
3881;SDS011;1956;53.482;10.238;2023-07-29T16:19:21;2.10;;;2.00;;
3881;SDS011;1956;53.482;10.238;2023-07-29T16:24:22;1.93;;;1.70;;
3881;SDS011;1956;53.482;10.238;2023-07-29T16:29:22;2.93;;;2.20;;
3881;SDS011;1956;53.482;10.238;2023-07-29T16:34:22;3.80;;;2.50;;
3881;SDS011;1956;53.482;10.238;2023-07-29T16:39:22;4.00;;;1.70;;
3881;SDS011;1956;53.482;10.238;2023-07-29T16:44:23;1.93;;;1.10;;
3881;SDS011;1956;53.482;10.238;2023-07-29T16:49:23;4.18;;;1.48;;
3881;SDS011;1956;53.482;10.238;2023-07-29T16:54:23;1.73;;;1.40;;
3881;SDS011;1956;53.482;10.238;2023-07-29T16:59:23;1.93;;;1.17;;
3881;SDS011;1956;53.482;10.238;2023-07-29T17:04:24;1.53;;;1.43;;
3881;SDS011;1956;53.482;10.238;2023-07-29T17:09:24;1.97;;;1.73;;
3881;SDS011;1956;53.482;10.238;2023-07-29T17:14:25;4.27;;;2.30;;
3881;SDS011;1956;53.482;10.238;2023-07-29T17:19:25;3.47;;;2.40;;
3881;SDS011;1956;53.482;10.238;2023-07-29T17:24:25;1.63;;;1.53;;
3881;SDS011;1956;53.482;10.238;2023-07-29T17:29:27;3.13;;;1.97;;
3881;SDS011;1956;53.482;10.238;2023-07-29T17:34:28;2.50;;;2.30;;
3881;SDS011;1956;53.482;10.238;2023-07-29T17:39:28;4.00;;;2.30;;
3881;SDS011;1956;53.482;10.238;2023-07-29T17:44:28;2.17;;;1.97;;
3881;SDS011;1956;53.482;10.238;2023-07-29T17:49:28;2.37;;;2.13;;
3881;SDS011;1956;53.482;10.238;2023-07-29T17:54:29;2.20;;;2.00;;
3881;SDS011;1956;53.482;10.238;2023-07-29T17:59:29;10.10;;;5.67;;
3881;SDS011;1956;53.482;10.238;2023-07-29T18:04:29;10.53;;;5.33;;
3881;SDS011;1956;53.482;10.238;2023-07-29T18:09:29;10.27;;;6.40;;
3881;SDS011;1956;53.482;10.238;2023-07-29T18:14:30;5.27;;;3.97;;
3881;SDS011;1956;53.482;10.238;2023-07-29T18:19:30;2.87;;;2.27;;
3881;SDS011;1956;53.482;10.238;2023-07-29T18:24:30;18.07;;;5.87;;
3881;SDS011;1956;53.482;10.238;2023-07-29T18:29:31;9.60;;;4.57;;
3881;SDS011;1956;53.482;10.238;2023-07-29T18:34:32;12.30;;;6.87;;
3881;SDS011;1956;53.482;10.238;2023-07-29T18:39:32;18.73;;;7.10;;
3881;SDS011;1956;53.482;10.238;2023-07-29T18:44:32;4.90;;;3.80;;
3881;SDS011;1956;53.482;10.238;2023-07-29T18:49:33;3.27;;;2.97;;
3881;SDS011;1956;53.482;10.238;2023-07-29T18:54:33;2.87;;;2.70;;
3881;SDS011;1956;53.482;10.238;2023-07-29T18:59:35;4.50;;;3.60;;
3881;SDS011;1956;53.482;10.238;2023-07-29T19:04:35;8.90;;;5.63;;
3881;SDS011;1956;53.482;10.238;2023-07-29T19:09:36;12.93;;;6.50;;
3881;SDS011;1956;53.482;10.238;2023-07-29T19:14:36;5.78;;;4.30;;
3881;SDS011;1956;53.482;10.238;2023-07-29T19:19:36;3.73;;;3.40;;
3881;SDS011;1956;53.482;10.238;2023-07-29T19:24:36;3.30;;;3.10;;
3881;SDS011;1956;53.482;10.238;2023-07-29T19:29:37;4.23;;;3.00;;
3881;SDS011;1956;53.482;10.238;2023-07-29T19:34:37;3.10;;;2.90;;
3881;SDS011;1956;53.482;10.238;2023-07-29T19:39:39;4.00;;;3.40;;
3881;SDS011;1956;53.482;10.238;2023-07-29T19:44:39;3.93;;;3.20;;
3881;SDS011;1956;53.482;10.238;2023-07-29T19:49:39;3.97;;;3.53;;
3881;SDS011;1956;53.482;10.238;2023-07-29T19:54:40;3.97;;;3.60;;
3881;SDS011;1956;53.482;10.238;2023-07-29T19:59:40;5.53;;;3.30;;
3881;SDS011;1956;53.482;10.238;2023-07-29T20:04:40;7.37;;;4.90;;
3881;SDS011;1956;53.482;10.238;2023-07-29T20:09:40;4.37;;;3.97;;
3881;SDS011;1956;53.482;10.238;2023-07-29T20:14:41;7.10;;;4.63;;
3881;SDS011;1956;53.482;10.238;2023-07-29T20:19:44;5.50;;;4.87;;
3881;SDS011;1956;53.482;10.238;2023-07-29T20:24:45;6.23;;;4.63;;
3881;SDS011;1956;53.482;10.238;2023-07-29T20:29:46;6.33;;;4.20;;
3881;SDS011;1956;53.482;10.238;2023-07-29T20:34:46;6.00;;;4.93;;
3881;SDS011;1956;53.482;10.238;2023-07-29T20:39:46;4.23;;;3.93;;
3881;SDS011;1956;53.482;10.238;2023-07-29T20:44:47;5.20;;;4.50;;
3881;SDS011;1956;53.482;10.238;2023-07-29T20:49:47;5.10;;;4.23;;
3881;SDS011;1956;53.482;10.238;2023-07-29T20:54:48;5.23;;;4.53;;
3881;SDS011;1956;53.482;10.238;2023-07-29T20:59:49;9.93;;;5.83;;
3881;SDS011;1956;53.482;10.238;2023-07-29T21:04:49;6.88;;;5.60;;
3881;SDS011;1956;53.482;10.238;2023-07-29T21:09:49;5.40;;;4.87;;
3881;SDS011;1956;53.482;10.238;2023-07-29T21:14:50;5.57;;;4.90;;
3881;SDS011;1956;53.482;10.238;2023-07-29T21:19:50;5.83;;;5.33;;
3881;SDS011;1956;53.482;10.238;2023-07-29T21:24:51;6.13;;;4.50;;
3881;SDS011;1956;53.482;10.238;2023-07-29T21:29:51;8.27;;;4.60;;
3881;SDS011;1956;53.482;10.238;2023-07-29T21:34:52;7.30;;;5.13;;
3881;SDS011;1956;53.482;10.238;2023-07-29T21:39:55;4.33;;;3.93;;
3881;SDS011;1956;53.482;10.238;2023-07-29T21:44:56;6.20;;;4.50;;
3881;SDS011;1956;53.482;10.238;2023-07-29T21:49:57;5.03;;;4.53;;
3881;SDS011;1956;53.482;10.238;2023-07-29T21:54:57;4.40;;;4.10;;
3881;SDS011;1956;53.482;10.238;2023-07-29T21:59:57;5.27;;;4.03;;
3881;SDS011;1956;53.482;10.238;2023-07-29T22:04:58;5.10;;;4.70;;
3881;SDS011;1956;53.482;10.238;2023-07-29T22:09:58;5.73;;;4.50;;
3881;SDS011;1956;53.482;10.238;2023-07-29T22:14:58;5.87;;;5.23;;
3881;SDS011;1956;53.482;10.238;2023-07-29T22:19:58;6.50;;;4.97;;
3881;SDS011;1956;53.482;10.238;2023-07-29T22:24:59;6.87;;;4.87;;
3881;SDS011;1956;53.482;10.238;2023-07-29T22:29:59;5.60;;;5.10;;
3881;SDS011;1956;53.482;10.238;2023-07-29T22:34:59;6.23;;;5.27;;
3881;SDS011;1956;53.482;10.238;2023-07-29T22:40:00;5.73;;;4.77;;
3881;SDS011;1956;53.482;10.238;2023-07-29T22:45:00;6.50;;;5.07;;
3881;SDS011;1956;53.482;10.238;2023-07-29T22:50:00;7.23;;;4.77;;
3881;SDS011;1956;53.482;10.238;2023-07-29T22:55:01;5.77;;;5.17;;
3881;SDS011;1956;53.482;10.238;2023-07-29T23:00:04;5.50;;;5.00;;
3881;SDS011;1956;53.482;10.238;2023-07-29T23:05:05;6.47;;;4.83;;
3881;SDS011;1956;53.482;10.238;2023-07-29T23:10:05;8.40;;;5.53;;
3881;SDS011;1956;53.482;10.238;2023-07-29T23:15:07;10.27;;;6.10;;
3881;SDS011;1956;53.482;10.238;2023-07-29T23:20:08;7.50;;;6.30;;
3881;SDS011;1956;53.482;10.238;2023-07-29T23:25:08;12.80;;;6.47;;
3881;SDS011;1956;53.482;10.238;2023-07-29T23:30:09;7.50;;;5.90;;
3881;SDS011;1956;53.482;10.238;2023-07-29T23:35:09;9.20;;;6.40;;
3881;SDS011;1956;53.482;10.238;2023-07-29T23:40:10;7.97;;;7.27;;
3881;SDS011;1956;53.482;10.238;2023-07-29T23:45:10;8.90;;;8.00;;
3881;SDS011;1956;53.482;10.238;2023-07-29T23:50:10;8.60;;;7.63;;
3881;SDS011;1956;53.482;10.238;2023-07-29T23:55:10;7.83;;;7.10;;
